sensor_id;sensor_type;location;lat;lon;timestamp;P1;durP1;ratioP1;P2;durP2;ratioP2
59786;SDS011;45672;51.612;5.536;2022-09-29T00:00:08;11.13;;;6.93;;
59786;SDS011;45672;51.612;5.536;2022-09-29T00:02:37;12.93;;;7.10;;
59786;SDS011;45672;51.612;5.536;2022-09-29T00:05:06;9.43;;;7.28;;
59786;SDS011;45672;51.612;5.536;2022-09-29T00:07:38;8.18;;;6.43;;
59786;SDS011;45672;51.612;5.536;2022-09-29T00:10:03;9.25;;;7.05;;
59786;SDS011;45672;51.612;5.536;2022-09-29T00:12:29;9.10;;;6.78;;
59786;SDS011;45672;51.612;5.536;2022-09-29T00:14:54;7.47;;;6.70;;
59786;SDS011;45672;51.612;5.536;2022-09-29T00:17:19;9.50;;;6.93;;
59786;SDS011;45672;51.612;5.536;2022-09-29T00:19:45;8.15;;;7.18;;
59786;SDS011;45672;51.612;5.536;2022-09-29T00:22:10;9.38;;;7.28;;
59786;SDS011;45672;51.612;5.536;2022-09-29T00:24:35;9.18;;;6.63;;
59786;SDS011;45672;51.612;5.536;2022-09-29T00:27:01;8.88;;;7.35;;
59786;SDS011;45672;51.612;5.536;2022-09-29T00:29:29;11.95;;;7.43;;
59786;SDS011;45672;51.612;5.536;2022-09-29T00:32:00;7.80;;;7.03;;
59786;SDS011;45672;51.612;5.536;2022-09-29T00:34:26;8.73;;;7.43;;
59786;SDS011;45672;51.612;5.536;2022-09-29T00:36:51;10.95;;;7.68;;
59786;SDS011;45672;51.612;5.536;2022-09-29T00:39:16;8.18;;;7.38;;
59786;SDS011;45672;51.612;5.536;2022-09-29T00:41:41;10.38;;;7.32;;
59786;SDS011;45672;51.612;5.536;2022-09-29T00:52:20;9.50;;;7.40;;
59786;SDS011;45672;51.612;5.536;2022-09-29T00:54:55;13.55;;;7.55;;
59786;SDS011;45672;51.612;5.536;2022-09-29T00:57:30;9.25;;;7.20;;
59786;SDS011;45672;51.612;5.536;2022-09-29T01:00:10;8.43;;;7.63;;
59786;SDS011;45672;51.612;5.536;2022-09-29T01:02:38;8.02;;;7.10;;
59786;SDS011;45672;51.612;5.536;2022-09-29T01:05:11;15.32;;;7.30;;
59786;SDS011;45672;51.612;5.536;2022-09-29T01:07:40;8.63;;;6.82;;
59786;SDS011;45672;51.612;5.536;2022-09-29T01:10:08;9.68;;;7.90;;
59786;SDS011;45672;51.612;5.536;2022-09-29T01:12:35;8.50;;;7.40;;
59786;SDS011;45672;51.612;5.536;2022-09-29T01:15:00;13.05;;;7.65;;
59786;SDS011;45672;51.612;5.536;2022-09-29T01:17:25;8.55;;;7.65;;
59786;SDS011;45672;51.612;5.536;2022-09-29T01:28:19;9.07;;;7.68;;
59786;SDS011;45672;51.612;5.536;2022-09-29T01:31:21;12.35;;;7.30;;
59786;SDS011;45672;51.612;5.536;2022-09-29T01:34:07;8.68;;;7.30;;
59786;SDS011;45672;51.612;5.536;2022-09-29T01:42:02;9.52;;;7.38;;
59786;SDS011;45672;51.612;5.536;2022-09-29T01:44:33;10.15;;;7.35;;
59786;SDS011;45672;51.612;5.536;2022-09-29T01:47:08;8.10;;;6.88;;
59786;SDS011;45672;51.612;5.536;2022-09-29T01:50:11;8.82;;;7.20;;
59786;SDS011;45672;51.612;5.536;2022-09-29T01:52:47;11.15;;;7.53;;
59786;SDS011;45672;51.612;5.536;2022-09-29T01:55:17;9.10;;;7.10;;
59786;SDS011;45672;51.612;5.536;2022-09-29T01:57:56;8.18;;;7.15;;
59786;SDS011;45672;51.612;5.536;2022-09-29T02:00:24;10.35;;;7.53;;
59786;SDS011;45672;51.612;5.536;2022-09-29T02:03:08;11.02;;;7.55;;
59786;SDS011;45672;51.612;5.536;2022-09-29T02:05:57;14.57;;;7.63;;
59786;SDS011;45672;51.612;5.536;2022-09-29T02:11:23;8.10;;;7.30;;
59786;SDS011;45672;51.612;5.536;2022-09-29T02:13:54;10.00;;;7.63;;
59786;SDS011;45672;51.612;5.536;2022-09-29T02:16:29;9.10;;;7.30;;
59786;SDS011;45672;51.612;5.536;2022-09-29T02:19:04;9.40;;;7.43;;
59786;SDS011;45672;51.612;5.536;2022-09-29T02:21:34;8.18;;;7.35;;
59786;SDS011;45672;51.612;5.536;2022-09-29T02:24:00;8.43;;;6.95;;
59786;SDS011;45672;51.612;5.536;2022-09-29T02:26:27;10.07;;;7.72;;
59786;SDS011;45672;51.612;5.536;2022-09-29T02:28:57;9.73;;;7.78;;
59786;SDS011;45672;51.612;5.536;2022-09-29T02:31:26;8.32;;;7.53;;
59786;SDS011;45672;51.612;5.536;2022-09-29T02:33:51;8.55;;;7.72;;
59786;SDS011;45672;51.612;5.536;2022-09-29T02:36:18;12.82;;;7.85;;
59786;SDS011;45672;51.612;5.536;2022-09-29T02:49:57;9.60;;;8.70;;
59786;SDS011;45672;51.612;5.536;2022-09-29T02:53:44;9.90;;;8.60;;
59786;SDS011;45672;51.612;5.536;2022-09-29T02:55:53;10.88;;;9.35;;
59786;SDS011;45672;51.612;5.536;2022-09-29T02:58:38;10.45;;;8.88;;
59786;SDS011;45672;51.612;5.536;2022-09-29T03:01:25;14.45;;;9.38;;
59786;SDS011;45672;51.612;5.536;2022-09-29T03:03:54;12.27;;;8.63;;
59786;SDS011;45672;51.612;5.536;2022-09-29T03:06:19;10.30;;;9.30;;
59786;SDS011;45672;51.612;5.536;2022-09-29T03:08:45;9.85;;;8.95;;
59786;SDS011;45672;51.612;5.536;2022-09-29T03:11:10;9.90;;;8.85;;
59786;SDS011;45672;51.612;5.536;2022-09-29T03:13:36;14.40;;;9.82;;
59786;SDS011;45672;51.612;5.536;2022-09-29T03:16:01;10.77;;;8.98;;
59786;SDS011;45672;51.612;5.536;2022-09-29T03:18:26;10.48;;;9.40;;
59786;SDS011;45672;51.612;5.536;2022-09-29T03:20:52;11.05;;;9.00;;
59786;SDS011;45672;51.612;5.536;2022-09-29T03:23:19;12.45;;;10.55;;
59786;SDS011;45672;51.612;5.536;2022-09-29T03:25:44;15.07;;;10.63;;
59786;SDS011;45672;51.612;5.536;2022-09-29T03:28:09;13.80;;;10.07;;
59786;SDS011;45672;51.612;5.536;2022-09-29T03:30:34;12.68;;;10.52;;
59786;SDS011;45672;51.612;5.536;2022-09-29T03:33:00;12.07;;;9.82;;
59786;SDS011;45672;51.612;5.536;2022-09-29T03:35:25;11.48;;;10.27;;
59786;SDS011;45672;51.612;5.536;2022-09-29T03:37:50;13.18;;;9.27;;
59786;SDS011;45672;51.612;5.536;2022-09-29T03:40:16;11.77;;;10.15;;
59786;SDS011;45672;51.612;5.536;2022-09-29T03:42:41;14.45;;;9.82;;
59786;SDS011;45672;51.612;5.536;2022-09-29T03:45:09;14.23;;;9.93;;
59786;SDS011;45672;51.612;5.536;2022-09-29T03:47:35;12.05;;;10.30;;
59786;SDS011;45672;51.612;5.536;2022-09-29T03:50:01;11.63;;;10.43;;
59786;SDS011;45672;51.612;5.536;2022-09-29T03:52:27;13.45;;;11.32;;
59786;SDS011;45672;51.612;5.536;2022-09-29T03:54:53;11.73;;;10.52;;
59786;SDS011;45672;51.612;5.536;2022-09-29T03:57:18;13.30;;;10.55;;
59786;SDS011;45672;51.612;5.536;2022-09-29T03:59:43;14.68;;;11.32;;
59786;SDS011;45672;51.612;5.536;2022-09-29T04:02:09;16.50;;;9.80;;
59786;SDS011;45672;51.612;5.536;2022-09-29T04:04:34;16.73;;;10.80;;
59786;SDS011;45672;51.612;5.536;2022-09-29T04:06:59;15.25;;;11.18;;
59786;SDS011;45672;51.612;5.536;2022-09-29T04:09:24;12.75;;;10.93;;
59786;SDS011;45672;51.612;5.536;2022-09-29T04:11:50;11.85;;;10.55;;
59786;SDS011;45672;51.612;5.536;2022-09-29T04:14:15;14.23;;;10.55;;
59786;SDS011;45672;51.612;5.536;2022-09-29T04:16:40;15.32;;;10.63;;
59786;SDS011;45672;51.612;5.536;2022-09-29T04:19:05;12.52;;;11.23;;
59786;SDS011;45672;51.612;5.536;2022-09-29T04:21:31;15.65;;;11.93;;
59786;SDS011;45672;51.612;5.536;2022-09-29T04:23:56;13.25;;;11.32;;
59786;SDS011;45672;51.612;5.536;2022-09-29T04:26:21;13.77;;;11.07;;
59786;SDS011;45672;51.612;5.536;2022-09-29T04:28:47;16.67;;;11.35;;
59786;SDS011;45672;51.612;5.536;2022-09-29T04:31:15;18.30;;;12.20;;
59786;SDS011;45672;51.612;5.536;2022-09-29T04:33:40;15.00;;;11.55;;
59786;SDS011;45672;51.612;5.536;2022-09-29T04:36:06;13.10;;;11.43;;
59786;SDS011;45672;51.612;5.536;2022-09-29T04:38:31;12.38;;;11.07;;
59786;SDS011;45672;51.612;5.536;2022-09-29T04:40:57;14.60;;;11.50;;
59786;SDS011;45672;51.612;5.536;2022-09-29T04:43:23;13.45;;;11.48;;
59786;SDS011;45672;51.612;5.536;2022-09-29T04:45:48;16.13;;;12.60;;
59786;SDS011;45672;51.612;5.536;2022-09-29T04:48:13;17.58;;;11.68;;
59786;SDS011;45672;51.612;5.536;2022-09-29T04:50:39;15.63;;;11.68;;
59786;SDS011;45672;51.612;5.536;2022-09-29T04:53:05;18.65;;;12.88;;
59786;SDS011;45672;51.612;5.536;2022-09-29T04:55:31;14.07;;;12.15;;
59786;SDS011;45672;51.612;5.536;2022-09-29T04:57:57;16.30;;;11.90;;
59786;SDS011;45672;51.612;5.536;2022-09-29T05:00:22;16.55;;;12.05;;
59786;SDS011;45672;51.612;5.536;2022-09-29T05:02:47;16.77;;;11.88;;
59786;SDS011;45672;51.612;5.536;2022-09-29T05:05:13;15.23;;;11.98;;
59786;SDS011;45672;51.612;5.536;2022-09-29T05:07:38;15.35;;;12.10;;
59786;SDS011;45672;51.612;5.536;2022-09-29T05:10:05;13.98;;;12.13;;
59786;SDS011;45672;51.612;5.536;2022-09-29T05:12:31;21.30;;;13.90;;
59786;SDS011;45672;51.612;5.536;2022-09-29T05:14:57;19.58;;;12.52;;
59786;SDS011;45672;51.612;5.536;2022-09-29T05:17:22;22.52;;;12.25;;
59786;SDS011;45672;51.612;5.536;2022-09-29T05:19:48;14.45;;;12.57;;
59786;SDS011;45672;51.612;5.536;2022-09-29T05:22:13;16.77;;;12.70;;
59786;SDS011;45672;51.612;5.536;2022-09-29T05:24:38;16.73;;;12.50;;
59786;SDS011;45672;51.612;5.536;2022-09-29T05:27:03;16.20;;;12.77;;
59786;SDS011;45672;51.612;5.536;2022-09-29T05:29:29;13.02;;;11.68;;
59786;SDS011;45672;51.612;5.536;2022-09-29T05:31:54;15.85;;;12.18;;
59786;SDS011;45672;51.612;5.536;2022-09-29T05:34:19;24.48;;;12.10;;
59786;SDS011;45672;51.612;5.536;2022-09-29T05:36:45;14.18;;;12.07;;
59786;SDS011;45672;51.612;5.536;2022-09-29T05:39:10;14.55;;;12.52;;
59786;SDS011;45672;51.612;5.536;2022-09-29T05:41:35;18.77;;;12.48;;
59786;SDS011;45672;51.612;5.536;2022-09-29T05:44:01;18.75;;;13.20;;
59786;SDS011;45672;51.612;5.536;2022-09-29T05:46:27;14.15;;;12.05;;
59786;SDS011;45672;51.612;5.536;2022-09-29T05:48:53;19.67;;;12.88;;
59786;SDS011;45672;51.612;5.536;2022-09-29T05:51:19;20.05;;;12.90;;
59786;SDS011;45672;51.612;5.536;2022-09-29T05:53:46;13.55;;;12.13;;
59786;SDS011;45672;51.612;5.536;2022-09-29T05:56:12;14.48;;;12.98;;
59786;SDS011;45672;51.612;5.536;2022-09-29T05:58:43;17.30;;;12.82;;
59786;SDS011;45672;51.612;5.536;2022-09-29T06:01:10;14.85;;;12.98;;
59786;SDS011;45672;51.612;5.536;2022-09-29T06:03:38;13.38;;;12.00;;
59786;SDS011;45672;51.612;5.536;2022-09-29T06:06:04;20.98;;;12.48;;
59786;SDS011;45672;51.612;5.536;2022-09-29T06:08:37;17.27;;;12.63;;
59786;SDS011;45672;51.612;5.536;2022-09-29T06:11:07;19.00;;;12.27;;
59786;SDS011;45672;51.612;5.536;2022-09-29T06:13:38;18.33;;;12.88;;
59786;SDS011;45672;51.612;5.536;2022-09-29T06:16:05;13.43;;;11.82;;
59786;SDS011;45672;51.612;5.536;2022-09-29T06:18:31;14.20;;;12.13;;
59786;SDS011;45672;51.612;5.536;2022-09-29T06:21:00;19.20;;;13.30;;
59786;SDS011;45672;51.612;5.536;2022-09-29T06:23:31;17.58;;;13.68;;
59786;SDS011;45672;51.612;5.536;2022-09-29T06:25:57;16.63;;;12.77;;
59786;SDS011;45672;51.612;5.536;2022-09-29T06:28:23;15.32;;;12.50;;
59786;SDS011;45672;51.612;5.536;2022-09-29T06:30:49;15.63;;;12.30;;
59786;SDS011;45672;51.612;5.536;2022-09-29T06:33:15;22.33;;;13.25;;
59786;SDS011;45672;51.612;5.536;2022-09-29T06:35:46;15.52;;;13.05;;
59786;SDS011;45672;51.612;5.536;2022-09-29T06:38:31;19.40;;;13.02;;
59786;SDS011;45672;51.612;5.536;2022-09-29T06:40:56;17.65;;;13.50;;
59786;SDS011;45672;51.612;5.536;2022-09-29T06:43:21;18.23;;;14.27;;
59786;SDS011;45672;51.612;5.536;2022-09-29T06:45:47;15.40;;;13.75;;
59786;SDS011;45672;51.612;5.536;2022-09-29T06:48:12;16.58;;;13.40;;
59786;SDS011;45672;51.612;5.536;2022-09-29T06:50:37;17.10;;;13.98;;
59786;SDS011;45672;51.612;5.536;2022-09-29T06:53:03;16.40;;;14.43;;
59786;SDS011;45672;51.612;5.536;2022-09-29T06:55:28;17.05;;;13.63;;
59786;SDS011;45672;51.612;5.536;2022-09-29T06:57:53;16.45;;;14.18;;
59786;SDS011;45672;51.612;5.536;2022-09-29T07:00:18;18.80;;;13.93;;
59786;SDS011;45672;51.612;5.536;2022-09-29T07:02:44;18.40;;;14.30;;
59786;SDS011;45672;51.612;5.536;2022-09-29T07:05:10;18.98;;;14.57;;
59786;SDS011;45672;51.612;5.536;2022-09-29T07:07:37;15.32;;;13.70;;
59786;SDS011;45672;51.612;5.536;2022-09-29T07:10:03;19.98;;;14.95;;
59786;SDS011;45672;51.612;5.536;2022-09-29T07:12:29;18.10;;;15.48;;
59786;SDS011;45672;51.612;5.536;2022-09-29T07:14:55;19.60;;;15.70;;
59786;SDS011;45672;51.612;5.536;2022-09-29T07:17:23;17.33;;;15.52;;
59786;SDS011;45672;51.612;5.536;2022-09-29T07:19:48;18.88;;;15.57;;
59786;SDS011;45672;51.612;5.536;2022-09-29T07:22:13;17.35;;;13.13;;
59786;SDS011;45672;51.612;5.536;2022-09-29T07:24:39;13.80;;;12.40;;
59786;SDS011;45672;51.612;5.536;2022-09-29T07:27:04;15.40;;;11.95;;
59786;SDS011;45672;51.612;5.536;2022-09-29T07:29:29;14.70;;;11.18;;
59786;SDS011;45672;51.612;5.536;2022-09-29T07:31:57;11.38;;;10.27;;
59786;SDS011;45672;51.612;5.536;2022-09-29T07:34:23;11.27;;;10.02;;
59786;SDS011;45672;51.612;5.536;2022-09-29T07:36:48;14.52;;;10.60;;
59786;SDS011;45672;51.612;5.536;2022-09-29T07:39:14;12.27;;;10.13;;
59786;SDS011;45672;51.612;5.536;2022-09-29T07:41:40;15.98;;;9.82;;
59786;SDS011;45672;51.612;5.536;2022-09-29T07:44:05;13.00;;;9.07;;
59786;SDS011;45672;51.612;5.536;2022-09-29T07:46:31;10.77;;;8.73;;
59786;SDS011;45672;51.612;5.536;2022-09-29T07:48:56;11.50;;;9.10;;
59786;SDS011;45672;51.612;5.536;2022-09-29T07:51:22;11.07;;;8.50;;
59786;SDS011;45672;51.612;5.536;2022-09-29T07:53:47;9.70;;;8.43;;
59786;SDS011;45672;51.612;5.536;2022-09-29T07:56:17;11.07;;;8.70;;
59786;SDS011;45672;51.612;5.536;2022-09-29T07:58:44;10.77;;;8.30;;
59786;SDS011;45672;51.612;5.536;2022-09-29T08:01:11;8.68;;;7.68;;
59786;SDS011;45672;51.612;5.536;2022-09-29T08:03:41;11.43;;;7.78;;
59786;SDS011;45672;51.612;5.536;2022-09-29T08:06:11;11.15;;;7.95;;
59786;SDS011;45672;51.612;5.536;2022-09-29T08:08:37;9.07;;;8.27;;
59786;SDS011;45672;51.612;5.536;2022-09-29T08:11:05;11.55;;;8.00;;
59786;SDS011;45672;51.612;5.536;2022-09-29T08:13:35;10.48;;;7.80;;
59786;SDS011;45672;51.612;5.536;2022-09-29T08:16:01;9.45;;;7.47;;
59786;SDS011;45672;51.612;5.536;2022-09-29T08:18:29;9.27;;;7.32;;
59786;SDS011;45672;51.612;5.536;2022-09-29T08:20:55;8.57;;;7.25;;
59786;SDS011;45672;51.612;5.536;2022-09-29T08:23:21;8.07;;;6.90;;
59786;SDS011;45672;51.612;5.536;2022-09-29T08:25:47;12.15;;;7.10;;
59786;SDS011;45672;51.612;5.536;2022-09-29T08:28:13;10.25;;;7.28;;
59786;SDS011;45672;51.612;5.536;2022-09-29T08:30:38;9.00;;;7.32;;
59786;SDS011;45672;51.612;5.536;2022-09-29T08:33:04;7.47;;;6.65;;
59786;SDS011;45672;51.612;5.536;2022-09-29T08:35:32;8.70;;;6.78;;
59786;SDS011;45672;51.612;5.536;2022-09-29T08:37:59;9.05;;;6.93;;
59786;SDS011;45672;51.612;5.536;2022-09-29T08:40:28;10.32;;;6.90;;
59786;SDS011;45672;51.612;5.536;2022-09-29T08:45:43;11.18;;;6.80;;
59786;SDS011;45672;51.612;5.536;2022-09-29T08:48:14;12.70;;;6.93;;
59786;SDS011;45672;51.612;5.536;2022-09-29T08:50:46;7.95;;;7.20;;
59786;SDS011;45672;51.612;5.536;2022-09-29T08:53:20;9.75;;;6.70;;
59786;SDS011;45672;51.612;5.536;2022-09-29T08:55:52;7.05;;;6.35;;
59786;SDS011;45672;51.612;5.536;2022-09-29T08:58:21;6.78;;;6.15;;
59786;SDS011;45672;51.612;5.536;2022-09-29T09:03:47;7.05;;;6.18;;
59786;SDS011;45672;51.612;5.536;2022-09-29T09:09:58;7.55;;;5.88;;
59786;SDS011;45672;51.612;5.536;2022-09-29T09:18:10;7.18;;;5.03;;
59786;SDS011;45672;51.612;5.536;2022-09-29T09:21:05;7.90;;;5.53;;
59786;SDS011;45672;51.612;5.536;2022-09-29T09:26:07;7.03;;;5.50;;
59786;SDS011;45672;51.612;5.536;2022-09-29T09:31:35;6.43;;;5.10;;
59786;SDS011;45672;51.612;5.536;2022-09-29T09:34:06;7.43;;;5.60;;
59786;SDS011;45672;51.612;5.536;2022-09-29T09:36:52;6.07;;;4.57;;
59786;SDS011;45672;51.612;5.536;2022-09-29T09:39:28;6.40;;;5.10;;
59786;SDS011;45672;51.612;5.536;2022-09-29T09:41:59;5.40;;;4.20;;
59786;SDS011;45672;51.612;5.536;2022-09-29T09:44:35;7.82;;;4.80;;
59786;SDS011;45672;51.612;5.536;2022-09-29T09:49:53;5.38;;;3.95;;
59786;SDS011;45672;51.612;5.536;2022-09-29T09:55:12;4.25;;;3.85;;
59786;SDS011;45672;51.612;5.536;2022-09-29T09:57:45;5.22;;;3.80;;
59786;SDS011;45672;51.612;5.536;2022-09-29T10:00:42;4.97;;;4.50;;
59786;SDS011;45672;51.612;5.536;2022-09-29T10:03:11;5.43;;;4.82;;
59786;SDS011;45672;51.612;5.536;2022-09-29T10:05:40;7.13;;;4.70;;
59786;SDS011;45672;51.612;5.536;2022-09-29T10:11:49;7.93;;;4.43;;
59786;SDS011;45672;51.612;5.536;2022-09-29T10:13:54;6.40;;;4.30;;
59786;SDS011;45672;51.612;5.536;2022-09-29T10:18:52;7.13;;;4.70;;
59786;SDS011;45672;51.612;5.536;2022-09-29T10:21:21;5.28;;;4.80;;
59786;SDS011;45672;51.612;5.536;2022-09-29T10:23:50;6.32;;;4.72;;
59786;SDS011;45672;51.612;5.536;2022-09-29T10:26:17;4.00;;;3.65;;
59786;SDS011;45672;51.612;5.536;2022-09-29T10:28:50;4.30;;;3.90;;
59786;SDS011;45672;51.612;5.536;2022-09-29T10:31:27;4.50;;;4.18;;
59786;SDS011;45672;51.612;5.536;2022-09-29T10:36:28;4.72;;;4.32;;
59786;SDS011;45672;51.612;5.536;2022-09-29T10:38:57;3.13;;;2.92;;
59786;SDS011;45672;51.612;5.536;2022-09-29T10:41:23;4.50;;;3.40;;
59786;SDS011;45672;51.612;5.536;2022-09-29T10:43:49;8.30;;;3.15;;
59786;SDS011;45672;51.612;5.536;2022-09-29T10:49:14;3.05;;;2.85;;
59786;SDS011;45672;51.612;5.536;2022-09-29T10:52:02;3.17;;;2.88;;
59786;SDS011;45672;51.612;5.536;2022-09-29T10:54:33;4.88;;;3.63;;
59786;SDS011;45672;51.612;5.536;2022-09-29T10:57:10;4.78;;;4.30;;
59786;SDS011;45672;51.612;5.536;2022-09-29T10:59:49;4.00;;;3.63;;
59786;SDS011;45672;51.612;5.536;2022-09-29T11:02:25;3.30;;;3.00;;
59786;SDS011;45672;51.612;5.536;2022-09-29T11:04:53;2.95;;;2.75;;
59786;SDS011;45672;51.612;5.536;2022-09-29T11:07:22;6.13;;;2.42;;
59786;SDS011;45672;51.612;5.536;2022-09-29T11:09:48;3.63;;;3.33;;
59786;SDS011;45672;51.612;5.536;2022-09-29T11:12:31;2.20;;;2.10;;
59786;SDS011;45672;51.612;5.536;2022-09-29T11:14:59;2.15;;;2.00;;
59786;SDS011;45672;51.612;5.536;2022-09-29T11:17:38;2.60;;;2.40;;
59786;SDS011;45672;51.612;5.536;2022-09-29T11:20:12;3.13;;;2.72;;
59786;SDS011;45672;51.612;5.536;2022-09-29T11:34:04;4.45;;;2.65;;
59786;SDS011;45672;51.612;5.536;2022-09-29T11:36:43;3.03;;;2.80;;
59786;SDS011;45672;51.612;5.536;2022-09-29T11:39:44;2.60;;;2.40;;
59786;SDS011;45672;51.612;5.536;2022-09-29T11:42:25;2.50;;;2.30;;
59786;SDS011;45672;51.612;5.536;2022-09-29T11:45:02;3.08;;;2.30;;
59786;SDS011;45672;51.612;5.536;2022-09-29T11:50:41;3.60;;;2.60;;
59786;SDS011;45672;51.612;5.536;2022-09-29T11:53:34;3.13;;;2.83;;
59786;SDS011;45672;51.612;5.536;2022-09-29T11:59:25;3.97;;;3.42;;
59786;SDS011;45672;51.612;5.536;2022-09-29T12:02:15;5.53;;;3.05;;
59786;SDS011;45672;51.612;5.536;2022-09-29T12:05:04;4.32;;;3.10;;
59786;SDS011;45672;51.612;5.536;2022-09-29T12:13:29;4.22;;;3.40;;
59786;SDS011;45672;51.612;5.536;2022-09-29T12:16:10;3.70;;;3.40;;
59786;SDS011;45672;51.612;5.536;2022-09-29T12:21:40;4.18;;;3.40;;
59786;SDS011;45672;51.612;5.536;2022-09-29T12:24:31;3.10;;;2.80;;
59786;SDS011;45672;51.612;5.536;2022-09-29T12:27:01;3.03;;;2.50;;
59786;SDS011;45672;51.612;5.536;2022-09-29T12:29:36;2.53;;;2.30;;
59786;SDS011;45672;51.612;5.536;2022-09-29T12:32:20;3.10;;;2.88;;
59786;SDS011;45672;51.612;5.536;2022-09-29T12:35:01;3.65;;;3.35;;
59786;SDS011;45672;51.612;5.536;2022-09-29T12:37:39;3.47;;;2.90;;
59786;SDS011;45672;51.612;5.536;2022-09-29T12:40:18;5.18;;;2.80;;
59786;SDS011;45672;51.612;5.536;2022-09-29T12:45:56;3.30;;;2.75;;
59786;SDS011;45672;51.612;5.536;2022-09-29T12:54:11;4.18;;;3.30;;
59786;SDS011;45672;51.612;5.536;2022-09-29T12:56:50;3.55;;;3.25;;
59786;SDS011;45672;51.612;5.536;2022-09-29T13:02:04;3.35;;;2.80;;
59786;SDS011;45672;51.612;5.536;2022-09-29T13:07:22;3.80;;;3.50;;
59786;SDS011;45672;51.612;5.536;2022-09-29T13:09:58;3.38;;;3.17;;
59786;SDS011;45672;51.612;5.536;2022-09-29T13:17:51;3.67;;;3.38;;
59786;SDS011;45672;51.612;5.536;2022-09-29T13:23:18;3.47;;;3.17;;
59786;SDS011;45672;51.612;5.536;2022-09-29T13:28:40;3.38;;;2.20;;
59786;SDS011;45672;51.612;5.536;2022-09-29T13:31:15;4.13;;;2.10;;
59786;SDS011;45672;51.612;5.536;2022-09-29T13:33:47;2.10;;;1.88;;
59786;SDS011;45672;51.612;5.536;2022-09-29T13:36:26;3.05;;;1.90;;
59786;SDS011;45672;51.612;5.536;2022-09-29T13:39:00;4.70;;;2.00;;
59786;SDS011;45672;51.612;5.536;2022-09-29T13:54:25;2.33;;;1.65;;
59786;SDS011;45672;51.612;5.536;2022-09-29T14:02:34;1.60;;;1.33;;
59786;SDS011;45672;51.612;5.536;2022-09-29T14:07:50;3.22;;;2.05;;
59786;SDS011;45672;51.612;5.536;2022-09-29T14:10:38;2.70;;;1.90;;
59786;SDS011;45672;51.612;5.536;2022-09-29T14:13:18;2.53;;;1.48;;
59786;SDS011;45672;51.612;5.536;2022-09-29T14:15:52;4.35;;;1.92;;
59786;SDS011;45672;51.612;5.536;2022-09-29T14:21:45;1.67;;;1.48;;
59786;SDS011;45672;51.612;5.536;2022-09-29T14:29:39;2.75;;;1.50;;
59786;SDS011;45672;51.612;5.536;2022-09-29T14:32:09;2.25;;;1.58;;
59786;SDS011;45672;51.612;5.536;2022-09-29T14:34:42;2.47;;;1.30;;
59786;SDS011;45672;51.612;5.536;2022-09-29T14:37:13;3.22;;;1.38;;
59786;SDS011;45672;51.612;5.536;2022-09-29T14:39:43;1.83;;;1.40;;
59786;SDS011;45672;51.612;5.536;2022-09-29T14:42:30;1.75;;;1.60;;
59786;SDS011;45672;51.612;5.536;2022-09-29T14:44:55;1.60;;;1.50;;
59786;SDS011;45672;51.612;5.536;2022-09-29T14:50:54;2.28;;;1.60;;
59786;SDS011;45672;51.612;5.536;2022-09-29T14:54:01;2.90;;;1.48;;
59786;SDS011;45672;51.612;5.536;2022-09-29T14:56:46;2.17;;;1.30;;
59786;SDS011;45672;51.612;5.536;2022-09-29T14:59:26;2.13;;;1.42;;
59786;SDS011;45672;51.612;5.536;2022-09-29T15:04:40;4.30;;;1.55;;
59786;SDS011;45672;51.612;5.536;2022-09-29T15:07:09;1.88;;;1.23;;
59786;SDS011;45672;51.612;5.536;2022-09-29T15:09:37;4.25;;;1.45;;
59786;SDS011;45672;51.612;5.536;2022-09-29T15:12:12;1.85;;;1.65;;
59786;SDS011;45672;51.612;5.536;2022-09-29T15:14:39;3.20;;;1.38;;
59786;SDS011;45672;51.612;5.536;2022-09-29T15:17:06;2.60;;;1.45;;
59786;SDS011;45672;51.612;5.536;2022-09-29T15:25:57;1.42;;;1.33;;
59786;SDS011;45672;51.612;5.536;2022-09-29T15:28:31;2.92;;;2.40;;
59786;SDS011;45672;51.612;5.536;2022-09-29T15:31:24;1.60;;;1.50;;
59786;SDS011;45672;51.612;5.536;2022-09-29T15:33:53;4.13;;;1.67;;
59786;SDS011;45672;51.612;5.536;2022-09-29T15:36:25;2.90;;;1.60;;
59786;SDS011;45672;51.612;5.536;2022-09-29T15:41:46;2.47;;;1.70;;
59786;SDS011;45672;51.612;5.536;2022-09-29T15:44:13;2.17;;;1.50;;
59786;SDS011;45672;51.612;5.536;2022-09-29T15:46:49;4.20;;;1.20;;
59786;SDS011;45672;51.612;5.536;2022-09-29T15:49:22;1.90;;;1.80;;
59786;SDS011;45672;51.612;5.536;2022-09-29T15:54:31;3.38;;;2.42;;
59786;SDS011;45672;51.612;5.536;2022-09-29T15:57:00;5.18;;;2.20;;
59786;SDS011;45672;51.612;5.536;2022-09-29T15:59:49;2.85;;;1.73;;
59786;SDS011;45672;51.612;5.536;2022-09-29T16:02:19;4.07;;;2.00;;
59786;SDS011;45672;51.612;5.536;2022-09-29T16:04:49;2.65;;;2.00;;
59786;SDS011;45672;51.612;5.536;2022-09-29T16:07:23;2.10;;;1.90;;
59786;SDS011;45672;51.612;5.536;2022-09-29T16:09:52;2.10;;;1.90;;
59786;SDS011;45672;51.612;5.536;2022-09-29T16:12:21;6.57;;;1.92;;
59786;SDS011;45672;51.612;5.536;2022-09-29T16:14:47;2.25;;;2.05;;
59786;SDS011;45672;51.612;5.536;2022-09-29T16:17:19;8.60;;;2.22;;
59786;SDS011;45672;51.612;5.536;2022-09-29T16:19:45;2.83;;;2.22;;
59786;SDS011;45672;51.612;5.536;2022-09-29T16:22:17;2.72;;;2.17;;
59786;SDS011;45672;51.612;5.536;2022-09-29T16:27:51;5.15;;;2.40;;
59786;SDS011;45672;51.612;5.536;2022-09-29T16:30:25;3.35;;;2.70;;
59786;SDS011;45672;51.612;5.536;2022-09-29T16:32:53;3.58;;;3.28;;
59786;SDS011;45672;51.612;5.536;2022-09-29T16:40:47;3.83;;;3.47;;
59786;SDS011;45672;51.612;5.536;2022-09-29T16:43:29;3.70;;;3.40;;
59786;SDS011;45672;51.612;5.536;2022-09-29T16:45:56;8.13;;;3.70;;
59786;SDS011;45672;51.612;5.536;2022-09-29T16:48:24;3.70;;;3.40;;
59786;SDS011;45672;51.612;5.536;2022-09-29T16:50:53;5.43;;;4.15;;
59786;SDS011;45672;51.612;5.536;2022-09-29T16:53:25;4.60;;;4.18;;
59786;SDS011;45672;51.612;5.536;2022-09-29T16:55:57;6.35;;;3.38;;
59786;SDS011;45672;51.612;5.536;2022-09-29T16:58:25;7.07;;;3.95;;
59786;SDS011;45672;51.612;5.536;2022-09-29T17:00:52;5.00;;;4.30;;
59786;SDS011;45672;51.612;5.536;2022-09-29T17:03:17;5.03;;;4.53;;
59786;SDS011;45672;51.612;5.536;2022-09-29T17:05:43;5.68;;;4.28;;
59786;SDS011;45672;51.612;5.536;2022-09-29T17:08:14;12.77;;;4.47;;
59786;SDS011;45672;51.612;5.536;2022-09-29T17:10:42;5.90;;;4.70;;
59786;SDS011;45672;51.612;5.536;2022-09-29T17:13:11;5.88;;;5.10;;
59786;SDS011;45672;51.612;5.536;2022-09-29T17:15:37;9.70;;;6.00;;
59786;SDS011;45672;51.612;5.536;2022-09-29T17:18:03;7.72;;;4.80;;
59786;SDS011;45672;51.612;5.536;2022-09-29T17:20:29;7.65;;;5.13;;
59786;SDS011;45672;51.612;5.536;2022-09-29T17:22:54;5.85;;;5.22;;
59786;SDS011;45672;51.612;5.536;2022-09-29T17:25:20;8.80;;;4.93;;
59786;SDS011;45672;51.612;5.536;2022-09-29T17:27:46;6.97;;;5.45;;
59786;SDS011;45672;51.612;5.536;2022-09-29T17:30:30;6.90;;;5.10;;
59786;SDS011;45672;51.612;5.536;2022-09-29T17:32:56;6.28;;;5.60;;
59786;SDS011;45672;51.612;5.536;2022-09-29T17:35:33;6.75;;;6.07;;
59786;SDS011;45672;51.612;5.536;2022-09-29T17:38:00;6.35;;;5.75;;
59786;SDS011;45672;51.612;5.536;2022-09-29T17:41:00;7.57;;;5.80;;
59786;SDS011;45672;51.612;5.536;2022-09-29T17:43:26;13.15;;;6.30;;
59786;SDS011;45672;51.612;5.536;2022-09-29T17:45:56;11.88;;;6.90;;
59786;SDS011;45672;51.612;5.536;2022-09-29T17:48:23;7.10;;;6.40;;
59786;SDS011;45672;51.612;5.536;2022-09-29T17:50:49;11.48;;;7.07;;
59786;SDS011;45672;51.612;5.536;2022-09-29T17:53:18;7.57;;;6.78;;
59786;SDS011;45672;51.612;5.536;2022-09-29T17:55:45;11.48;;;6.93;;
59786;SDS011;45672;51.612;5.536;2022-09-29T17:58:16;9.88;;;7.07;;